EDDT/TXL METAR and TAF weather

Enter ICAO airport designator
Station Type Date Time Source
EDDT METAR 2019/10/20 18:50 UTC NOAA

EDDT 201850Z 08005KT 040V110 CAVOK 16/13 Q1011 NOSIG


Station Type Date Time Source
EDDT Decoded METAR 2019/10/20 18:50 UTC NOAA

Berlin-Tegel, Germany (EDDT) 52-34N 013-19E 37M
Oct 20, 2019 - 02:50 PM EDT / 2019.10.20 1850 UTC
Wind: from the E (080 degrees) at 6 MPH (5 KT) (direction variable):0
Visibility: greater than 7 mile(s):0
Temperature: 60 F (16 C)
Dew Point: 55 F (13 C)
Relative Humidity: 82%
Pressure (altimeter): 29.85 in. Hg (1011 hPa)
ob: EDDT 201850Z 08005KT 040V110 CAVOK 16/13 Q1011 NOSIG
cycle: 19

Station Type Date Time Source
EDDT TAF 2019/10/20 18:37 UTC NOAA

TAF EDDT 201700Z 2018/2118 12005KT CAVOK PROB30
TEMPO 2103/2106 4000 BCFG
BECMG 2110/2113 24005KT

Example: see airport list